createdAt,value
2017-08-29T06:04:17.126Z,21.79
2017-08-29T06:06:19.594Z,21.67
2017-08-29T06:08:22.072Z,21.55
2017-08-29T06:10:24.676Z,21.67
2017-08-29T06:12:27.146Z,21.61
2017-08-29T06:14:29.621Z,21.58
2017-08-29T06:16:32.186Z,21.61
2017-08-29T06:18:34.646Z,21.61
2017-08-29T06:20:37.107Z,21.59
2017-08-29T06:22:39.656Z,21.61
2017-08-29T06:24:42.113Z,21.63
2017-08-29T06:26:44.595Z,21.63
2017-08-29T06:28:47.175Z,21.63
2017-08-29T06:30:49.667Z,21.62
2017-08-29T06:32:52.141Z,21.64
2017-08-29T06:34:54.785Z,21.61
2017-08-29T06:36:57.237Z,21.63
2017-08-29T06:38:59.720Z,21.60
2017-08-29T06:41:02.265Z,21.59
2017-08-29T06:43:04.756Z,21.63
2017-08-29T06:45:07.992Z,21.62
2017-08-29T06:47:10.542Z,21.66
2017-08-29T06:49:13.035Z,21.66
2017-08-29T06:51:15.507Z,21.70
2017-08-29T06:53:18.073Z,21.70
2017-08-29T06:55:20.548Z,21.72
2017-08-29T06:57:23.074Z,21.73
2017-08-29T06:59:25.616Z,21.74
2017-08-29T07:01:28.083Z,21.76
2017-08-29T07:03:30.560Z,21.77
2017-08-29T07:05:33.150Z,21.80
2017-08-29T07:07:35.623Z,21.82
2017-08-29T07:09:38.103Z,21.85
2017-08-29T07:11:40.732Z,21.86
2017-08-29T07:13:43.224Z,21.86
2017-08-29T07:15:45.682Z,21.87
2017-08-29T07:17:48.235Z,21.89
2017-08-29T07:19:50.705Z,21.92
2017-08-29T07:21:53.157Z,21.94
2017-08-29T07:23:55.677Z,21.97
2017-08-29T07:25:58.149Z,21.99
2017-08-29T07:28:00.629Z,22.01
2017-08-29T07:30:03.173Z,22.03
2017-08-29T07:32:05.667Z,22.06
2017-08-29T07:34:08.155Z,22.10
2017-08-29T07:36:10.705Z,22.10
2017-08-29T07:38:13.223Z,22.12
2017-08-29T07:40:15.700Z,22.21
2017-08-29T07:42:18.250Z,22.20
2017-08-29T07:44:20.743Z,22.23
2017-08-29T07:46:23.216Z,22.26
2017-08-29T07:48:25.819Z,22.26
2017-08-29T07:50:28.414Z,22.28
2017-08-29T07:52:30.892Z,22.38
2017-08-29T07:54:33.505Z,22.39
2017-08-29T07:56:35.971Z,22.42
2017-08-29T07:58:38.494Z,22.43
2017-08-29T08:00:41.047Z,22.45
2017-08-29T08:02:43.555Z,22.47
2017-08-29T08:04:46.014Z,22.49
2017-08-29T08:06:48.553Z,22.54
2017-08-29T08:08:51.024Z,22.57
2017-08-29T08:10:53.476Z,22.62
2017-08-29T08:12:56.658Z,22.63
2017-08-29T08:14:59.132Z,22.72
2017-08-29T08:17:01.600Z,22.74
2017-08-29T08:19:04.782Z,22.78
2017-08-29T08:21:07.257Z,22.85
2017-08-29T08:23:09.826Z,22.87
2017-08-29T08:25:12.408Z,22.90
2017-08-29T08:27:14.896Z,22.90
2017-08-29T08:29:17.421Z,22.96
2017-08-29T08:31:19.973Z,23.02
2017-08-29T08:33:22.445Z,23.11
2017-08-29T08:35:24.924Z,23.12
2017-08-29T08:37:27.448Z,23.11
2017-08-29T08:39:29.906Z,23.13
2017-08-29T08:41:32.379Z,23.23
2017-08-29T08:43:34.940Z,23.28
2017-08-29T08:45:37.430Z,23.30
2017-08-29T08:47:39.946Z,23.24
2017-08-29T08:49:42.484Z,23.26
2017-08-29T08:51:44.954Z,23.36
2017-08-29T08:53:47.425Z,23.37
2017-08-29T08:55:49.973Z,23.49
2017-08-29T08:57:52.451Z,23.53
2017-08-29T08:59:54.949Z,23.60
2017-08-29T09:01:57.562Z,23.56
2017-08-29T09:04:00.033Z,23.58
2017-08-29T09:06:02.552Z,23.63
2017-08-29T09:08:05.112Z,23.76
2017-08-29T09:10:07.584Z,23.70
2017-08-29T09:12:10.463Z,23.71
2017-08-29T09:14:13.038Z,23.81
2017-08-29T09:16:15.516Z,23.74
2017-08-29T09:18:17.986Z,23.78
2017-08-29T09:20:20.658Z,23.91
2017-08-29T09:22:23.160Z,23.92
2017-08-29T09:24:26.110Z,24.01
2017-08-29T09:26:28.706Z,24.02
2017-08-29T09:28:31.180Z,24.04
2017-08-29T09:30:33.763Z,23.98
2017-08-29T09:32:36.292Z,24.08
2017-08-29T09:34:38.803Z,24.11
2017-08-29T09:36:41.345Z,24.18
2017-08-29T09:38:43.876Z,24.11
2017-08-29T09:40:46.367Z,24.26
2017-08-29T09:42:48.838Z,24.41
2017-08-29T09:44:51.382Z,24.35
2017-08-29T09:46:53.902Z,24.38
2017-08-29T09:48:56.393Z,24.44
2017-08-29T09:50:58.928Z,24.47
2017-08-29T09:53:01.465Z,24.46
2017-08-29T09:55:03.973Z,24.43
2017-08-29T09:57:06.506Z,24.43
2017-08-29T09:59:08.976Z,24.57
2017-08-29T10:01:11.445Z,24.58
2017-08-29T10:03:13.994Z,24.62
2017-08-29T10:05:16.488Z,24.58
2017-08-29T10:07:18.964Z,24.63
2017-08-29T10:09:21.505Z,24.63
2017-08-29T10:11:23.990Z,24.80
2017-08-29T10:13:26.472Z,24.85
2017-08-29T10:15:29.043Z,24.86
2017-08-29T10:17:31.548Z,24.98
2017-08-29T10:19:34.013Z,25.05
2017-08-29T10:21:36.548Z,24.96
2017-08-29T10:23:39.017Z,24.96
2017-08-29T10:25:41.501Z,25.05
2017-08-29T10:27:44.065Z,25.50
2017-08-29T10:29:46.596Z,25.62
2017-08-29T10:31:49.078Z,25.64
2017-08-29T10:33:51.624Z,25.65
2017-08-29T10:35:54.102Z,25.79
2017-08-29T10:37:56.727Z,25.94
2017-08-29T10:39:59.278Z,26.43
2017-08-29T10:42:01.774Z,26.36
2017-08-29T10:44:04.248Z,26.65
2017-08-29T10:46:06.822Z,26.62
2017-08-29T10:48:09.341Z,26.76
2017-08-29T10:50:11.938Z,26.86
2017-08-29T10:52:14.485Z,27.04
2017-08-29T10:54:16.963Z,27.02
2017-08-29T10:56:19.455Z,27.14
2017-08-29T10:58:22.045Z,27.26
2017-08-29T11:00:24.535Z,27.36
2017-08-29T11:02:27.050Z,27.58
2017-08-29T11:04:29.585Z,27.49
2017-08-29T11:06:32.141Z,27.62
2017-08-29T11:08:34.611Z,27.78
2017-08-29T11:10:37.169Z,27.94
2017-08-29T11:12:39.620Z,28.00
2017-08-29T11:14:42.129Z,28.05
2017-08-29T11:16:44.683Z,28.18
2017-08-29T11:18:47.154Z,28.20
2017-08-29T11:20:49.624Z,28.32
2017-08-29T11:22:52.168Z,28.57
2017-08-29T11:24:54.655Z,28.76
2017-08-29T11:26:57.148Z,28.55
2017-08-29T11:28:59.693Z,28.77
2017-08-29T11:31:02.205Z,29.17
2017-08-29T11:33:04.748Z,29.04
2017-08-29T11:35:07.294Z,29.13
2017-08-29T11:37:09.788Z,29.26
2017-08-29T11:39:12.269Z,29.31
2017-08-29T11:41:14.842Z,29.32
2017-08-29T11:43:17.317Z,29.49
2017-08-29T11:45:19.822Z,29.66
2017-08-29T11:47:22.378Z,29.70
2017-08-29T11:49:27.394Z,29.78
2017-08-29T11:51:30.568Z,29.82
2017-08-29T11:53:33.116Z,29.89
2017-08-29T11:55:35.618Z,30.16
2017-08-29T11:57:38.133Z,30.14
2017-08-29T11:59:40.727Z,30.09
2017-08-29T12:01:43.193Z,30.25
2017-08-29T12:03:45.665Z,30.30
2017-08-29T12:05:48.235Z,30.25
2017-08-29T12:07:50.725Z,30.68
2017-08-29T12:09:53.251Z,30.64
2017-08-29T12:11:55.774Z,30.84
2017-08-29T12:13:58.261Z,30.86
2017-08-29T12:16:00.753Z,30.92
2017-08-29T12:18:03.308Z,30.93
2017-08-29T12:20:05.798Z,30.91
2017-08-29T12:22:08.317Z,31.11
2017-08-29T12:24:10.869Z,31.17
2017-08-29T12:26:13.348Z,31.30
2017-08-29T12:28:15.846Z,31.51
2017-08-29T12:30:18.382Z,31.52
2017-08-29T12:32:20.875Z,31.24
2017-08-29T12:34:23.390Z,31.45
2017-08-29T12:36:25.918Z,31.51
2017-08-29T12:38:28.392Z,31.68
2017-08-29T12:40:30.882Z,31.89
2017-08-29T12:42:33.419Z,31.77
2017-08-29T12:44:35.893Z,31.84
2017-08-29T12:46:38.353Z,31.78
2017-08-29T12:48:40.897Z,31.95
2017-08-29T12:50:43.392Z,32.08
2017-08-29T12:52:45.942Z,32.28
2017-08-29T12:54:48.492Z,32.39
2017-08-29T12:56:50.988Z,32.22
2017-08-29T12:58:53.481Z,32.16
2017-08-29T13:00:56.021Z,32.36
2017-08-29T13:02:58.502Z,32.36
2017-08-29T13:05:00.981Z,32.43
2017-08-29T13:07:03.507Z,32.66
2017-08-29T13:09:06.004Z,32.57
2017-08-29T13:11:08.538Z,32.76
2017-08-29T13:13:11.080Z,32.68
2017-08-29T13:15:13.592Z,32.93
2017-08-29T13:17:16.077Z,33.05
2017-08-29T13:19:18.636Z,33.01
2017-08-29T13:21:21.144Z,32.89
2017-08-29T13:23:23.649Z,33.19
2017-08-29T13:25:26.195Z,33.33
2017-08-29T13:27:28.678Z,32.96
2017-08-29T13:29:31.167Z,33.15
2017-08-29T13:31:33.745Z,32.69
2017-08-29T13:33:36.227Z,33.00
2017-08-29T13:35:38.716Z,33.08
2017-08-29T13:37:41.251Z,32.99
2017-08-29T13:39:43.726Z,33.30
2017-08-29T13:41:46.194Z,33.19
2017-08-29T13:43:48.766Z,32.99
2017-08-29T13:45:51.259Z,33.00
2017-08-29T13:47:53.790Z,33.23
2017-08-29T13:49:56.399Z,33.19
2017-08-29T13:51:58.869Z,32.96
2017-08-29T13:54:01.346Z,33.23
2017-08-29T13:56:03.867Z,33.39
2017-08-29T13:58:06.389Z,33.50
2017-08-29T14:00:08.855Z,33.49
2017-08-29T14:02:11.573Z,33.75
2017-08-29T14:04:14.057Z,33.60
2017-08-29T14:06:16.530Z,33.35
2017-08-29T14:08:19.101Z,33.27
2017-08-29T14:10:21.605Z,33.25
2017-08-29T14:12:24.079Z,32.69
2017-08-29T14:14:27.018Z,33.09
2017-08-29T14:16:29.556Z,33.39
2017-08-29T14:18:32.050Z,33.39
2017-08-29T14:20:34.610Z,33.35
2017-08-29T14:22:37.090Z,33.02
2017-08-29T14:24:39.585Z,33.43
2017-08-29T14:26:42.149Z,33.43
2017-08-29T14:28:44.627Z,33.86
2017-08-29T14:30:47.095Z,33.83
2017-08-29T14:32:49.646Z,33.93
2017-08-29T14:34:52.123Z,34.10
2017-08-29T14:36:54.653Z,33.83
2017-08-29T14:38:57.213Z,34.24
2017-08-29T14:40:59.742Z,34.12
2017-08-29T14:43:02.250Z,33.95
2017-08-29T14:45:04.791Z,33.42
2017-08-29T14:47:19.159Z,33.31
2017-08-29T14:49:21.642Z,33.37
2017-08-29T14:51:24.262Z,33.19
2017-08-29T14:53:26.738Z,33.19
2017-08-29T14:55:29.246Z,33.34
2017-08-29T14:57:31.798Z,33.37
2017-08-29T14:59:34.271Z,32.60
2017-08-29T15:01:36.764Z,32.54
2017-08-29T15:03:39.309Z,32.66
2017-08-29T15:05:41.809Z,32.89
2017-08-29T15:07:44.285Z,33.16
2017-08-29T15:09:46.836Z,33.37
2017-08-29T15:11:49.319Z,33.12
2017-08-29T15:13:51.797Z,33.07
2017-08-29T15:15:55.543Z,33.21
2017-08-29T15:17:58.024Z,33.06
2017-08-29T15:20:00.581Z,33.31
2017-08-29T15:22:03.150Z,33.27
2017-08-29T15:24:05.645Z,33.55
2017-08-29T15:26:08.129Z,33.66
2017-08-29T15:28:10.818Z,33.53
2017-08-29T15:30:14.679Z,33.51
2017-08-29T15:32:17.894Z,33.28
2017-08-29T15:34:20.437Z,33.23
2017-08-29T15:36:22.934Z,32.87
2017-08-29T15:38:25.425Z,32.92
2017-08-29T15:40:27.957Z,32.87
2017-08-29T15:42:30.470Z,32.88
2017-08-29T15:44:32.957Z,32.88
2017-08-29T15:46:35.518Z,32.92
2017-08-29T15:48:38.003Z,33.00
2017-08-29T15:50:40.468Z,33.09
2017-08-29T15:52:43.032Z,33.05
2017-08-29T15:54:45.559Z,32.83
2017-08-29T15:56:48.022Z,33.01
2017-08-29T15:58:50.583Z,33.11
2017-08-29T16:00:53.061Z,32.94
2017-08-29T16:02:55.595Z,33.14
2017-08-29T16:04:58.322Z,33.13
2017-08-29T16:07:00.793Z,33.32
2017-08-29T16:09:03.350Z,33.34
2017-08-29T16:11:05.901Z,33.43
2017-08-29T16:13:08.377Z,33.57
2017-08-29T16:15:10.866Z,33.61
2017-08-29T16:17:13.492Z,33.14
2017-08-29T16:19:15.974Z,32.94
2017-08-29T16:21:18.441Z,32.90
2017-08-29T16:23:20.991Z,33.02
2017-08-29T16:25:23.523Z,33.04
2017-08-29T16:27:25.985Z,33.11
2017-08-29T16:29:28.532Z,33.18
2017-08-29T16:31:31.001Z,33.14
2017-08-29T16:33:33.473Z,33.20
2017-08-29T16:35:36.033Z,33.24
2017-08-29T16:37:38.496Z,33.34
2017-08-29T16:39:41.020Z,33.28
2017-08-29T16:41:43.593Z,33.11
2017-08-29T16:43:46.104Z,33.16
2017-08-29T16:45:48.590Z,33.17
2017-08-29T16:47:51.119Z,33.22
2017-08-29T16:49:53.624Z,33.23
2017-08-29T16:51:56.104Z,33.04
2017-08-29T16:53:58.641Z,33.00
2017-08-29T16:56:01.109Z,33.12
2017-08-29T16:58:03.629Z,33.13
2017-08-29T17:00:06.153Z,32.99
2017-08-29T17:02:08.691Z,33.02
2017-08-29T17:04:11.279Z,32.95
2017-08-29T17:06:13.902Z,32.75
2017-08-29T17:08:16.392Z,32.87
2017-08-29T17:10:18.905Z,32.89
2017-08-29T17:12:21.459Z,32.81
2017-08-29T17:14:23.976Z,32.84
2017-08-29T17:16:26.459Z,32.76
2017-08-29T17:18:29.099Z,32.73
2017-08-29T17:20:31.582Z,32.65
2017-08-29T17:22:34.044Z,32.51
2017-08-29T17:24:36.593Z,32.46
2017-08-29T17:26:39.058Z,32.48
2017-08-29T17:28:41.549Z,32.49
2017-08-29T17:30:44.086Z,32.40
2017-08-29T17:32:46.769Z,32.28
2017-08-29T17:34:49.275Z,32.16
2017-08-29T17:36:51.822Z,32.04
2017-08-29T17:38:54.305Z,31.98
2017-08-29T17:40:56.824Z,31.99
2017-08-29T17:42:59.363Z,31.98
2017-08-29T17:45:01.839Z,31.86
2017-08-29T17:47:04.309Z,31.85
2017-08-29T17:49:06.847Z,31.70
2017-08-29T17:51:09.383Z,31.65
2017-08-29T17:53:11.861Z,31.61
2017-08-29T17:55:14.411Z,31.47
2017-08-29T17:57:16.894Z,31.41
2017-08-29T17:59:19.391Z,31.49
2017-08-29T18:01:21.961Z,31.35
2017-08-29T18:03:24.440Z,31.34
2017-08-29T18:05:26.996Z,31.23
2017-08-29T18:07:30.703Z,31.18
2017-08-29T18:09:33.225Z,31.18
2017-08-29T18:11:35.693Z,31.14
2017-08-29T18:13:38.262Z,31.08
2017-08-29T18:15:40.798Z,30.96
2017-08-29T18:17:43.275Z,30.98
2017-08-29T18:19:46.242Z,30.89
2017-08-29T18:21:48.725Z,30.82
2017-08-29T18:23:51.222Z,30.78
2017-08-29T18:25:53.779Z,30.71
2017-08-29T18:27:56.279Z,30.62
2017-08-29T18:29:58.781Z,30.65
2017-08-29T18:32:01.357Z,30.58
2017-08-29T18:34:03.956Z,30.56
2017-08-29T18:36:06.455Z,30.47
2017-08-29T18:38:10.446Z,30.52
2017-08-29T18:40:13.007Z,30.42
2017-08-29T18:42:15.486Z,30.38
2017-08-29T18:44:18.035Z,30.23
2017-08-29T18:46:20.516Z,30.30
2017-08-29T18:48:22.989Z,30.12
2017-08-29T18:50:25.625Z,30.16
2017-08-29T18:52:28.105Z,30.15
2017-08-29T18:54:30.593Z,30.06
2017-08-29T18:56:33.181Z,30.02
2017-08-29T18:58:35.671Z,30.00
2017-08-29T19:00:38.158Z,29.98
2017-08-29T19:02:40.816Z,29.93
2017-08-29T19:04:43.293Z,29.87
2017-08-29T19:06:46.462Z,29.88
2017-08-29T19:08:49.029Z,29.74
2017-08-29T19:10:51.525Z,29.81
2017-08-29T19:12:53.993Z,29.79
2017-08-29T19:14:56.996Z,29.58
2017-08-29T19:16:59.492Z,29.59
2017-08-29T19:19:01.980Z,29.58
2017-08-29T19:21:05.082Z,29.52
2017-08-29T19:23:07.630Z,29.60
2017-08-29T19:25:10.213Z,29.52
2017-08-29T19:27:12.754Z,29.39
2017-08-29T19:29:15.263Z,29.46
2017-08-29T19:31:18.065Z,29.44
2017-08-29T19:33:21.586Z,29.31
2017-08-29T19:35:24.178Z,29.36
2017-08-29T19:37:26.649Z,29.32
2017-08-29T19:39:29.792Z,29.21
2017-08-29T19:41:32.506Z,29.17
2017-08-29T19:43:35.022Z,29.20
2017-08-29T19:45:37.572Z,29.10
2017-08-29T19:47:40.082Z,29.08
2017-08-29T19:49:42.583Z,29.08
2017-08-29T19:51:45.929Z,29.03
2017-08-29T19:53:49.600Z,29.03
2017-08-29T19:55:52.222Z,28.97
2017-08-29T19:57:54.799Z,28.97
2017-08-29T19:59:57.279Z,28.93
2017-08-29T20:01:59.769Z,28.95
2017-08-29T20:04:02.409Z,28.84
2017-08-29T20:06:04.907Z,28.82
2017-08-29T20:08:07.442Z,28.76
2017-08-29T20:10:09.974Z,28.75
2017-08-29T20:12:12.511Z,28.79
2017-08-29T20:14:15.020Z,28.78
2017-08-29T20:16:17.561Z,28.68
2017-08-29T20:18:20.066Z,28.64
2017-08-29T20:20:22.566Z,28.58
2017-08-29T20:22:25.237Z,28.46
2017-08-29T20:24:28.285Z,28.39
2017-08-29T20:26:30.770Z,28.41
2017-08-29T20:28:33.335Z,28.36
2017-08-29T20:30:35.839Z,28.35
2017-08-29T20:32:38.369Z,28.26
2017-08-29T20:34:40.906Z,28.21
2017-08-29T20:36:43.392Z,28.27
2017-08-29T20:38:45.869Z,28.19
2017-08-29T20:40:48.455Z,28.18
2017-08-29T20:42:50.940Z,28.13
2017-08-29T20:44:53.434Z,28.16
2017-08-29T20:46:56.070Z,28.16
2017-08-29T20:48:58.549Z,28.04
2017-08-29T20:51:01.025Z,28.12
2017-08-29T20:53:03.550Z,28.07
2017-08-29T20:55:06.062Z,27.91
2017-08-29T20:57:08.544Z,27.94
2017-08-29T20:59:11.109Z,27.94
2017-08-29T21:01:13.591Z,27.91
2017-08-29T21:03:16.057Z,27.75
2017-08-29T21:05:18.583Z,27.69
2017-08-29T21:07:21.075Z,27.82
2017-08-29T21:09:23.547Z,27.79
2017-08-29T21:11:26.100Z,27.75
2017-08-29T21:13:28.617Z,27.63
2017-08-29T21:15:31.093Z,27.56
2017-08-29T21:17:33.624Z,27.61
2017-08-29T21:19:36.126Z,27.55
2017-08-29T21:21:38.602Z,27.44
2017-08-29T21:23:41.215Z,27.46
2017-08-29T21:25:43.701Z,27.41
2017-08-29T21:27:46.207Z,27.27
2017-08-29T21:29:48.762Z,27.35
2017-08-29T21:31:51.255Z,27.37
2017-08-29T21:33:53.750Z,27.35
2017-08-29T21:35:57.661Z,27.39
2017-08-29T21:38:00.142Z,27.25
2017-08-29T21:40:02.608Z,27.28
2017-08-29T21:42:05.153Z,27.27
2017-08-29T21:44:07.647Z,27.18
2017-08-29T21:46:10.126Z,27.09
2017-08-29T21:48:12.664Z,27.06
2017-08-29T21:50:15.133Z,27.09
2017-08-29T21:52:17.612Z,27.14
2017-08-29T21:54:20.146Z,27.11
2017-08-29T21:56:22.604Z,27.07
2017-08-29T21:58:25.087Z,27.02
2017-08-29T22:00:30.605Z,26.97
2017-08-29T22:02:33.094Z,26.94
2017-08-29T22:04:35.581Z,26.88
2017-08-29T22:06:38.110Z,26.92
2017-08-29T22:08:40.579Z,26.90
2017-08-29T22:10:43.047Z,26.91
2017-08-29T22:12:45.589Z,26.86
2017-08-29T22:14:48.078Z,26.87
2017-08-29T22:16:50.552Z,26.82
2017-08-29T22:18:53.091Z,26.65
2017-08-29T22:20:55.557Z,26.65
2017-08-29T22:22:58.025Z,26.61
2017-08-29T22:25:00.719Z,26.61
2017-08-29T22:27:03.190Z,26.57
2017-08-29T22:29:05.658Z,26.58
2017-08-29T22:31:08.185Z,26.57
2017-08-29T22:33:10.677Z,26.50
2017-08-29T22:35:13.181Z,26.32
2017-08-29T22:37:15.718Z,26.43
2017-08-29T22:39:18.204Z,26.48
2017-08-29T22:41:20.668Z,26.47
2017-08-29T22:43:23.235Z,26.45
2017-08-29T22:45:25.700Z,26.46
2017-08-29T22:47:28.172Z,26.35
2017-08-29T22:49:30.689Z,26.36
2017-08-29T22:51:33.149Z,26.42
2017-08-29T22:53:35.628Z,26.37
2017-08-29T22:55:38.180Z,26.31
2017-08-29T22:57:40.649Z,26.24
2017-08-29T22:59:43.118Z,26.29
2017-08-29T23:01:45.652Z,26.25
2017-08-29T23:03:48.132Z,26.27
2017-08-29T23:05:50.594Z,26.19
2017-08-29T23:07:53.141Z,26.16
2017-08-29T23:09:55.615Z,26.09
2017-08-29T23:11:58.079Z,26.09
2017-08-29T23:14:00.622Z,25.95
2017-08-29T23:16:03.089Z,26.03
2017-08-29T23:18:05.552Z,26.03
2017-08-29T23:20:08.094Z,25.99
2017-08-29T23:22:10.735Z,25.92
2017-08-29T23:24:13.229Z,25.91
2017-08-29T23:26:16.126Z,25.93
2017-08-29T23:28:18.601Z,25.91
2017-08-29T23:30:21.077Z,25.83
2017-08-29T23:32:23.640Z,25.74
2017-08-29T23:34:26.114Z,25.84
2017-08-29T23:36:28.585Z,25.81
2017-08-29T23:38:31.111Z,25.73
2017-08-29T23:40:33.597Z,25.72
2017-08-29T23:42:36.101Z,25.74
2017-08-29T23:44:38.663Z,25.69
2017-08-29T23:46:41.148Z,25.69
2017-08-29T23:48:43.661Z,25.68
2017-08-29T23:50:46.214Z,25.65
2017-08-29T23:52:48.714Z,25.64
2017-08-29T23:54:51.203Z,25.64
2017-08-29T23:59:02.678Z,25.52
